createdAt,value
2023-03-29T00:01:00.335Z,15.70
2023-03-29T00:03:30.820Z,15.60
2023-03-29T00:06:03.022Z,15.60
2023-03-29T00:08:34.044Z,15.60
2023-03-29T00:11:03.036Z,15.60
2023-03-29T00:13:31.616Z,15.60
2023-03-29T00:16:00.202Z,15.50
2023-03-29T00:18:28.517Z,15.50
2023-03-29T00:20:57.278Z,15.50
2023-03-29T00:23:25.855Z,15.50
2023-03-29T00:25:56.833Z,15.40
2023-03-29T00:28:25.577Z,15.40
2023-03-29T00:30:53.928Z,15.40
2023-03-29T00:33:22.878Z,15.40
2023-03-29T00:35:53.772Z,15.30
2023-03-29T00:38:22.112Z,15.30
2023-03-29T00:40:50.396Z,15.30
2023-03-29T00:43:20.311Z,15.30
2023-03-29T00:45:48.696Z,15.20
2023-03-29T00:48:20.439Z,15.20
2023-03-29T00:50:51.964Z,15.20
2023-03-29T00:53:26.226Z,15.20
2023-03-29T00:55:58.702Z,15.10
2023-03-29T00:58:33.870Z,15.10
2023-03-29T01:01:05.499Z,15.10
2023-03-29T01:03:41.603Z,15.00
2023-03-29T01:06:12.336Z,15.00
2023-03-29T01:08:44.721Z,15.00
2023-03-29T01:11:19.100Z,15.00
2023-03-29T01:13:54.840Z,15.00
2023-03-29T01:16:24.502Z,14.90
2023-03-29T01:18:53.412Z,15.00
2023-03-29T01:21:27.917Z,14.90
2023-03-29T01:24:15.402Z,14.90
2023-03-29T01:26:51.201Z,14.80
2023-03-29T01:29:26.354Z,14.90
2023-03-29T01:32:00.427Z,14.90
2023-03-29T01:34:36.294Z,14.80
2023-03-29T01:37:09.188Z,14.80
2023-03-29T01:39:37.622Z,14.80
2023-03-29T01:42:27.324Z,14.80
2023-03-29T01:45:03.454Z,14.70
2023-03-29T01:47:38.483Z,14.70
2023-03-29T01:50:14.696Z,14.70
2023-03-29T01:52:48.142Z,14.70
2023-03-29T01:55:20.322Z,14.70
2023-03-29T01:57:50.125Z,14.70
2023-03-29T02:00:24.797Z,14.70
2023-03-29T02:02:56.141Z,14.70
2023-03-29T02:05:26.587Z,14.70
2023-03-29T02:07:55.849Z,14.70
2023-03-29T02:10:25.816Z,14.60
2023-03-29T02:12:54.187Z,14.60
2023-03-29T02:15:24.673Z,14.60
2023-03-29T02:17:53.112Z,14.60
2023-03-29T02:20:27.190Z,14.50
2023-03-29T02:23:02.323Z,14.50
2023-03-29T02:25:30.876Z,14.50
2023-03-29T02:27:59.703Z,14.50
2023-03-29T02:30:34.480Z,14.50
2023-03-29T02:33:11.219Z,14.40
2023-03-29T02:35:46.181Z,14.40
2023-03-29T02:38:14.724Z,14.40
2023-03-29T02:40:44.543Z,14.40
2023-03-29T02:43:15.798Z,14.40
2023-03-29T02:45:47.213Z,14.30
2023-03-29T02:48:19.467Z,14.30
2023-03-29T02:50:50.980Z,14.30
2023-03-29T02:53:22.803Z,14.30
2023-03-29T02:55:51.864Z,14.20
2023-03-29T02:58:20.697Z,14.20
2023-03-29T03:00:50.789Z,14.20
2023-03-29T03:03:19.123Z,14.20
2023-03-29T03:05:47.849Z,14.20
2023-03-29T03:08:16.296Z,14.20
2023-03-29T03:10:46.068Z,14.20
2023-03-29T03:13:15.839Z,14.10
2023-03-29T03:15:48.976Z,14.10
2023-03-29T03:18:18.772Z,14.10
2023-03-29T03:20:57.086Z,14.10
2023-03-29T03:23:25.402Z,14.10
2023-03-29T03:25:53.933Z,14.00
2023-03-29T03:28:24.330Z,14.00
2023-03-29T03:30:52.723Z,14.00
2023-03-29T03:33:22.632Z,14.00
2023-03-29T03:35:51.018Z,14.00
2023-03-29T03:38:19.433Z,13.90
2023-03-29T03:40:55.006Z,13.90
2023-03-29T03:43:23.734Z,13.90
2023-03-29T03:45:52.202Z,13.90
2023-03-29T03:48:21.942Z,13.80
2023-03-29T03:50:51.294Z,13.80
2023-03-29T03:53:19.738Z,13.80
2023-03-29T03:55:49.670Z,13.80
2023-03-29T03:58:18.160Z,13.80
2023-03-29T04:00:49.086Z,13.80
2023-03-29T04:03:18.080Z,13.80
2023-03-29T04:05:48.808Z,13.70
2023-03-29T04:08:17.150Z,13.70
2023-03-29T04:10:54.149Z,13.70
2023-03-29T04:13:22.875Z,13.70
2023-03-29T04:15:54.250Z,13.70
2023-03-29T04:18:22.856Z,13.60
2023-03-29T04:20:52.799Z,13.70
2023-03-29T04:23:21.056Z,13.70
2023-03-29T04:25:49.562Z,13.60
2023-03-29T04:28:17.833Z,13.60
2023-03-29T04:30:48.316Z,13.60
2023-03-29T04:33:16.643Z,13.60
2023-03-29T04:35:45.058Z,13.60
2023-03-29T04:38:14.772Z,13.60
2023-03-29T04:40:44.185Z,13.50
2023-03-29T04:43:12.652Z,13.50
2023-03-29T04:45:41.143Z,13.50
2023-03-29T04:48:09.608Z,13.50
2023-03-29T04:50:37.921Z,13.50
2023-03-29T04:53:07.433Z,13.40
2023-03-29T04:55:37.130Z,13.50
2023-03-29T04:58:05.700Z,13.50
2023-03-29T05:00:34.001Z,13.40
2023-03-29T05:03:02.309Z,13.40
2023-03-29T05:05:30.592Z,13.40
2023-03-29T05:07:58.829Z,13.40
2023-03-29T05:10:27.366Z,13.40
2023-03-29T05:12:57.138Z,13.30
2023-03-29T05:15:25.497Z,13.30
2023-03-29T05:17:53.861Z,13.30
2023-03-29T05:20:22.922Z,13.30
2023-03-29T05:22:51.246Z,13.30
2023-03-29T05:25:19.690Z,13.20
2023-03-29T05:27:48.182Z,13.20
2023-03-29T05:30:18.403Z,13.20
2023-03-29T05:32:47.000Z,13.20
2023-03-29T05:35:15.483Z,13.20
2023-03-29T05:37:43.851Z,13.20
2023-03-29T05:40:13.536Z,13.10
2023-03-29T05:42:41.882Z,13.20
2023-03-29T05:45:12.144Z,13.20
2023-03-29T05:47:41.823Z,13.20
2023-03-29T05:50:11.399Z,13.10
2023-03-29T05:52:41.174Z,13.20
2023-03-29T05:55:10.425Z,13.20
2023-03-29T05:57:38.864Z,13.20
2023-03-29T06:00:16.860Z,13.20
2023-03-29T06:02:47.308Z,13.20
2023-03-29T06:05:16.204Z,13.20
2023-03-29T06:07:44.483Z,13.20
2023-03-29T06:10:13.131Z,13.20
2023-03-29T06:12:41.455Z,13.10
2023-03-29T06:15:10.346Z,13.10
2023-03-29T06:17:39.668Z,13.10
2023-03-29T06:20:11.420Z,13.10
2023-03-29T06:22:39.802Z,13.10
2023-03-29T06:25:11.062Z,13.20
2023-03-29T06:27:39.639Z,13.20
2023-03-29T06:30:09.517Z,13.20
2023-03-29T06:32:37.835Z,13.20
2023-03-29T06:35:06.981Z,13.20
2023-03-29T06:37:36.682Z,13.20
2023-03-29T06:40:09.418Z,13.20
2023-03-29T06:42:37.620Z,13.20
2023-03-29T06:45:06.999Z,13.20
2023-03-29T06:47:35.328Z,13.30
2023-03-29T06:50:03.792Z,13.30
2023-03-29T06:52:32.024Z,13.20
2023-03-29T06:55:01.962Z,13.30
2023-03-29T06:57:30.906Z,13.30
2023-03-29T06:59:59.128Z,13.30
2023-03-29T07:02:27.479Z,13.20
2023-03-29T07:04:56.225Z,13.30
2023-03-29T07:07:27.750Z,13.30
2023-03-29T07:09:56.003Z,13.30
2023-03-29T07:12:26.486Z,13.30
2023-03-29T07:14:54.753Z,13.30
2023-03-29T07:17:23.039Z,13.40
2023-03-29T07:19:51.346Z,13.40
2023-03-29T07:22:19.558Z,13.50
2023-03-29T07:24:49.424Z,13.50
2023-03-29T07:27:18.262Z,13.50
2023-03-29T07:29:49.261Z,13.60
2023-03-29T07:32:17.757Z,13.60
2023-03-29T07:34:46.944Z,13.60
2023-03-29T07:37:15.225Z,13.70
2023-03-29T07:39:43.517Z,13.70
2023-03-29T07:42:11.761Z,13.70
2023-03-29T07:44:41.734Z,13.80
2023-03-29T07:47:11.404Z,13.80
2023-03-29T07:49:39.752Z,13.80
2023-03-29T07:52:08.194Z,13.80
2023-03-29T07:54:36.543Z,13.80
2023-03-29T07:57:05.006Z,13.80
2023-03-29T07:59:33.334Z,13.80
2023-03-29T08:02:01.640Z,13.90
2023-03-29T08:04:31.912Z,13.90
2023-03-29T08:07:00.258Z,14.00
2023-03-29T08:09:29.166Z,14.00
2023-03-29T08:11:57.663Z,14.00
2023-03-29T08:14:26.005Z,14.00
2023-03-29T08:16:54.323Z,14.10
2023-03-29T08:19:22.751Z,14.10
2023-03-29T08:21:52.557Z,14.10
2023-03-29T08:24:21.393Z,14.10
2023-03-29T08:26:50.008Z,14.20
2023-03-29T08:29:18.275Z,14.20
2023-03-29T08:31:46.573Z,14.20
2023-03-29T08:34:15.046Z,14.20
2023-03-29T08:36:43.256Z,14.30
2023-03-29T08:39:12.895Z,14.30
2023-03-29T08:41:50.723Z,14.30
2023-03-29T08:44:31.108Z,14.40
2023-03-29T08:47:08.381Z,14.40
2023-03-29T08:49:38.929Z,14.40
2023-03-29T08:52:18.095Z,14.50
2023-03-29T08:54:49.614Z,14.50
2023-03-29T08:57:21.137Z,14.60
2023-03-29T08:59:52.336Z,14.60
2023-03-29T09:02:24.994Z,14.60
2023-03-29T09:04:57.091Z,14.70
2023-03-29T09:07:26.642Z,14.70
2023-03-29T09:09:57.117Z,14.70
2023-03-29T09:12:37.894Z,14.70
2023-03-29T09:15:12.832Z,14.80
2023-03-29T09:17:49.912Z,14.80
2023-03-29T09:20:28.797Z,14.80
2023-03-29T09:23:08.912Z,14.70
2023-03-29T09:25:54.191Z,14.70
2023-03-29T09:28:31.303Z,14.70
2023-03-29T09:31:07.570Z,14.70
2023-03-29T09:33:42.943Z,14.70
2023-03-29T09:36:13.637Z,14.70
2023-03-29T09:38:44.229Z,14.70
2023-03-29T09:41:22.574Z,14.70
2023-03-29T09:43:52.858Z,14.80
2023-03-29T09:46:25.654Z,14.80
2023-03-29T09:48:56.097Z,14.90
2023-03-29T09:51:28.178Z,14.90
2023-03-29T09:53:57.316Z,15.00
2023-03-29T09:56:27.154Z,15.10
2023-03-29T09:58:55.810Z,15.10
2023-03-29T10:01:24.069Z,15.10
2023-03-29T10:03:53.797Z,15.20
2023-03-29T10:06:25.554Z,15.20
2023-03-29T10:08:57.931Z,15.20
2023-03-29T10:11:33.490Z,15.20
2023-03-29T10:14:04.095Z,15.20
2023-03-29T10:16:36.194Z,15.20
2023-03-29T10:19:20.658Z,15.20
2023-03-29T10:21:50.158Z,15.20
2023-03-29T10:24:21.548Z,15.20
2023-03-29T10:26:55.692Z,15.10
2023-03-29T10:29:25.014Z,15.10
2023-03-29T10:31:53.739Z,15.10
2023-03-29T10:34:26.208Z,15.00
2023-03-29T10:36:59.617Z,15.00
2023-03-29T10:39:30.264Z,15.00
2023-03-29T10:42:01.108Z,15.00
2023-03-29T10:44:33.256Z,15.00
2023-03-29T10:47:16.186Z,15.00
2023-03-29T10:49:47.053Z,14.90
2023-03-29T10:52:17.315Z,15.00
2023-03-29T10:54:46.686Z,14.90
2023-03-29T10:57:23.993Z,14.90
2023-03-29T10:59:59.199Z,14.90
2023-03-29T11:02:50.425Z,15.00
2023-03-29T11:05:29.157Z,15.00
2023-03-29T11:08:19.502Z,15.10
2023-03-29T11:10:55.352Z,15.10
2023-03-29T11:13:33.190Z,15.20
2023-03-29T11:16:13.171Z,15.40
2023-03-29T11:19:02.987Z,15.60
2023-03-29T11:21:38.102Z,15.90
2023-03-29T11:24:27.700Z,16.00
2023-03-29T11:27:09.847Z,16.30
2023-03-29T11:29:47.066Z,16.50
2023-03-29T11:32:21.780Z,16.60
2023-03-29T11:35:02.288Z,16.70
2023-03-29T11:37:38.205Z,16.80
2023-03-29T11:40:21.339Z,16.80
2023-03-29T11:42:54.805Z,16.80
2023-03-29T11:45:30.837Z,16.90
2023-03-29T11:48:01.567Z,17.10
2023-03-29T11:50:37.750Z,17.30
2023-03-29T11:53:13.732Z,17.50
2023-03-29T11:55:42.792Z,17.60
2023-03-29T11:58:18.395Z,17.90
2023-03-29T12:00:52.331Z,18.00
2023-03-29T12:03:32.359Z,18.10
2023-03-29T12:06:05.310Z,18.30
2023-03-29T12:08:39.280Z,18.20
2023-03-29T12:11:15.419Z,18.10
2023-03-29T12:13:46.938Z,17.90
2023-03-29T12:16:20.654Z,17.90
2023-03-29T12:18:52.054Z,17.80
2023-03-29T12:21:22.850Z,17.70
2023-03-29T12:23:52.080Z,17.70
2023-03-29T12:26:32.803Z,17.60
2023-03-29T12:29:15.811Z,17.50
2023-03-29T12:31:52.466Z,17.40
2023-03-29T12:34:39.128Z,17.40
2023-03-29T12:37:27.907Z,17.40
2023-03-29T12:40:02.696Z,17.70
2023-03-29T12:42:31.081Z,17.80
2023-03-29T12:45:00.934Z,17.80
2023-03-29T12:47:42.827Z,17.90
2023-03-29T12:50:28.423Z,17.90
2023-03-29T12:53:08.628Z,18.00
2023-03-29T12:55:50.244Z,18.10
2023-03-29T12:58:43.878Z,18.00
2023-03-29T13:01:25.127Z,17.90
2023-03-29T13:03:58.719Z,17.80
2023-03-29T13:06:32.861Z,17.70
2023-03-29T13:09:05.388Z,17.60
2023-03-29T13:11:35.972Z,17.50
2023-03-29T13:14:13.629Z,17.40
2023-03-29T13:16:42.835Z,17.30
2023-03-29T13:19:30.627Z,17.30
2023-03-29T13:22:13.950Z,17.40
2023-03-29T13:25:04.472Z,17.90
2023-03-29T13:27:43.208Z,18.60
2023-03-29T13:30:27.802Z,19.10
2023-03-29T13:33:16.055Z,19.20
2023-03-29T13:35:54.690Z,18.90
2023-03-29T13:38:28.741Z,18.70
2023-03-29T13:41:05.353Z,18.50
2023-03-29T13:43:49.741Z,18.50
2023-03-29T13:46:24.156Z,18.30
2023-03-29T13:49:07.901Z,18.30
2023-03-29T13:51:42.080Z,18.20
2023-03-29T13:54:24.777Z,18.20
2023-03-29T13:57:01.615Z,18.20
2023-03-29T13:59:38.833Z,18.10
2023-03-29T14:02:07.909Z,18.20
2023-03-29T14:04:42.045Z,18.20
2023-03-29T14:07:15.682Z,18.30
2023-03-29T14:09:47.371Z,18.30
2023-03-29T14:12:16.843Z,18.30
2023-03-29T14:14:57.763Z,18.30
2023-03-29T14:17:27.383Z,18.20
2023-03-29T14:19:59.366Z,18.10
2023-03-29T14:22:33.687Z,18.10
2023-03-29T14:25:07.589Z,18.00
2023-03-29T14:27:37.417Z,17.90
2023-03-29T14:30:23.416Z,17.80
2023-03-29T14:32:52.516Z,17.80
2023-03-29T14:35:21.642Z,17.80
2023-03-29T14:37:51.592Z,17.70
2023-03-29T14:40:21.788Z,17.70
2023-03-29T14:42:51.074Z,17.70
2023-03-29T14:45:24.804Z,17.60
2023-03-29T14:47:54.753Z,17.70
2023-03-29T14:50:28.299Z,17.60
2023-03-29T14:52:59.957Z,17.60
2023-03-29T14:55:29.394Z,17.60
2023-03-29T14:58:00.485Z,17.50
2023-03-29T15:00:32.194Z,17.50
2023-03-29T15:03:02.398Z,17.50
2023-03-29T15:05:38.064Z,17.40
2023-03-29T15:08:12.170Z,17.40
2023-03-29T15:10:44.885Z,17.40
2023-03-29T15:13:17.618Z,17.30
2023-03-29T15:15:46.412Z,17.30
2023-03-29T15:18:17.957Z,17.30
2023-03-29T15:20:47.194Z,17.30
2023-03-29T15:23:26.247Z,17.30
2023-03-29T15:25:58.988Z,17.30
2023-03-29T15:28:31.372Z,17.30
2023-03-29T15:33:37.596Z,17.70
2023-03-29T15:36:08.590Z,18.40
2023-03-29T15:38:44.654Z,18.90
2023-03-29T15:41:15.706Z,18.70
2023-03-29T15:43:44.390Z,18.50
2023-03-29T15:46:14.776Z,18.30
2023-03-29T15:48:44.173Z,18.20
2023-03-29T15:51:13.363Z,18.00
2023-03-29T15:53:43.428Z,18.00
2023-03-29T15:56:17.308Z,17.90
2023-03-29T15:58:46.718Z,17.90
2023-03-29T16:01:34.921Z,17.80
2023-03-29T16:04:03.970Z,17.70
2023-03-29T16:06:33.434Z,17.70
2023-03-29T16:09:04.326Z,17.70
2023-03-29T16:11:32.696Z,17.70
2023-03-29T16:14:01.305Z,17.70
2023-03-29T16:16:29.922Z,17.70
2023-03-29T16:18:58.525Z,17.70
2023-03-29T16:21:27.343Z,17.70
2023-03-29T16:23:56.027Z,17.60
2023-03-29T16:26:26.759Z,17.60
2023-03-29T16:28:55.310Z,17.60
2023-03-29T16:31:26.968Z,17.60
2023-03-29T16:33:55.868Z,17.50
2023-03-29T16:36:24.243Z,17.50
2023-03-29T16:38:53.825Z,17.50
2023-03-29T16:41:22.471Z,17.50
2023-03-29T16:43:52.373Z,17.50
2023-03-29T16:46:21.071Z,17.40
2023-03-29T16:48:51.502Z,17.40
2023-03-29T16:51:20.141Z,17.30
2023-03-29T16:53:49.179Z,17.30
2023-03-29T16:56:17.661Z,17.30
2023-03-29T16:58:46.585Z,17.20
2023-03-29T17:01:18.074Z,17.20
2023-03-29T17:03:46.383Z,17.20
2023-03-29T17:06:15.019Z,17.20
2023-03-29T17:08:43.532Z,17.20
2023-03-29T17:11:13.303Z,17.20
2023-03-29T17:13:41.732Z,17.20
2023-03-29T17:16:10.236Z,17.20
2023-03-29T17:18:40.194Z,17.20
2023-03-29T17:21:09.024Z,17.20
2023-03-29T17:23:37.443Z,17.20
2023-03-29T17:26:07.120Z,17.20
2023-03-29T17:28:35.960Z,17.10
2023-03-29T17:31:08.626Z,17.20
2023-03-29T17:33:37.519Z,17.20
2023-03-29T17:36:08.615Z,17.20
2023-03-29T17:38:38.362Z,17.20
2023-03-29T17:41:08.080Z,17.20
2023-03-29T17:43:36.417Z,17.20
2023-03-29T17:46:04.944Z,17.10
2023-03-29T17:48:34.114Z,17.10
2023-03-29T17:51:02.483Z,17.10
2023-03-29T17:53:32.307Z,17.10
2023-03-29T17:56:00.720Z,17.00
2023-03-29T17:58:29.086Z,17.00
2023-03-29T18:00:57.472Z,17.00
2023-03-29T18:03:25.796Z,16.90
2023-03-29T18:05:54.325Z,16.90
2023-03-29T18:08:22.494Z,16.90
2023-03-29T18:10:52.178Z,16.90
2023-03-29T18:13:25.682Z,16.80
2023-03-29T18:15:58.058Z,16.80
2023-03-29T18:18:26.915Z,16.80
2023-03-29T18:20:55.284Z,16.80
2023-03-29T18:23:23.550Z,16.80
2023-03-29T18:25:53.226Z,16.80
2023-03-29T18:28:21.530Z,16.80
2023-03-29T18:30:52.274Z,16.80
2023-03-29T18:33:20.514Z,16.80
2023-03-29T18:35:50.596Z,16.80
2023-03-29T18:38:20.121Z,16.80
2023-03-29T18:40:48.486Z,16.80
2023-03-29T18:43:18.163Z,16.80
2023-03-29T18:45:47.591Z,16.80
2023-03-29T18:48:15.935Z,16.80
2023-03-29T18:50:46.550Z,16.80
2023-03-29T18:53:14.885Z,16.80
2023-03-29T18:55:43.994Z,16.70
2023-03-29T18:58:13.342Z,16.70
2023-03-29T19:00:44.024Z,16.70
2023-03-29T19:03:12.835Z,16.70
2023-03-29T19:05:41.515Z,16.70
2023-03-29T19:08:10.100Z,16.70
2023-03-29T19:10:39.517Z,16.70
2023-03-29T19:13:07.844Z,16.70
2023-03-29T19:15:36.449Z,16.70
2023-03-29T19:18:06.343Z,16.70
2023-03-29T19:20:35.762Z,16.70
2023-03-29T19:23:04.206Z,16.70
2023-03-29T19:25:32.868Z,16.70
2023-03-29T19:28:03.456Z,16.70
2023-03-29T19:30:31.897Z,16.70
2023-03-29T19:33:00.216Z,16.60
2023-03-29T19:35:30.032Z,16.70
2023-03-29T19:37:58.324Z,16.60
2023-03-29T19:40:27.489Z,16.60
2023-03-29T19:42:55.739Z,16.60
2023-03-29T19:45:24.577Z,16.50
2023-03-29T19:47:55.543Z,16.50
2023-03-29T19:50:24.460Z,16.50
2023-03-29T19:52:54.522Z,16.50
2023-03-29T19:55:22.922Z,16.50
2023-03-29T19:57:51.244Z,16.50
2023-03-29T20:00:24.498Z,16.50
2023-03-29T20:02:53.104Z,16.40
2023-03-29T20:05:21.642Z,16.40
2023-03-29T20:07:49.869Z,16.40
2023-03-29T20:10:20.021Z,16.40
2023-03-29T20:12:48.716Z,16.40
2023-03-29T20:15:17.326Z,16.30
2023-03-29T20:17:45.649Z,16.30
2023-03-29T20:20:14.562Z,16.30
2023-03-29T20:22:45.393Z,16.30
2023-03-29T20:25:14.153Z,16.40
2023-03-29T20:27:44.131Z,16.30
2023-03-29T20:30:13.437Z,16.40
2023-03-29T20:32:41.915Z,16.30
2023-03-29T20:35:11.229Z,16.30
2023-03-29T20:37:39.538Z,16.30
2023-03-29T20:40:11.272Z,16.30
2023-03-29T20:42:39.516Z,16.40
2023-03-29T20:45:18.749Z,16.40
2023-03-29T20:47:50.526Z,16.40
2023-03-29T20:50:20.430Z,16.30
2023-03-29T20:52:48.739Z,16.30
2023-03-29T20:55:22.419Z,16.30
2023-03-29T20:57:51.099Z,16.30
2023-03-29T21:00:22.464Z,16.30
2023-03-29T21:02:50.886Z,16.30
2023-03-29T21:05:19.383Z,16.30
2023-03-29T21:07:48.117Z,16.30
2023-03-29T21:10:17.711Z,16.30
2023-03-29T21:12:45.956Z,16.30
2023-03-29T21:15:14.703Z,16.20
2023-03-29T21:17:44.537Z,16.20
2023-03-29T21:20:14.245Z,16.30
2023-03-29T21:22:44.098Z,16.20
2023-03-29T21:25:15.668Z,16.20
2023-03-29T21:27:44.436Z,16.20
2023-03-29T21:30:13.197Z,16.20
2023-03-29T21:32:41.661Z,16.20
2023-03-29T21:35:12.396Z,16.20
2023-03-29T21:37:41.310Z,16.20
2023-03-29T21:40:11.518Z,16.20
2023-03-29T21:42:40.253Z,16.10
2023-03-29T21:45:10.277Z,16.20
2023-03-29T21:47:38.633Z,16.20
2023-03-29T21:50:09.376Z,16.10
2023-03-29T21:52:39.186Z,16.20
2023-03-29T21:55:08.615Z,16.20
2023-03-29T21:57:37.255Z,16.10
2023-03-29T22:00:11.156Z,16.20
2023-03-29T22:02:40.138Z,16.20
2023-03-29T22:05:09.206Z,16.20
2023-03-29T22:07:39.805Z,16.20
2023-03-29T22:10:09.560Z,16.20
2023-03-29T22:12:38.524Z,16.20
2023-03-29T22:15:09.423Z,16.20
2023-03-29T22:17:38.105Z,16.20
2023-03-29T22:20:13.021Z,16.20
2023-03-29T22:22:45.914Z,16.20
2023-03-29T22:25:14.907Z,16.20
2023-03-29T22:27:44.766Z,16.30
2023-03-29T22:30:14.772Z,16.20
2023-03-29T22:32:43.102Z,16.20
2023-03-29T22:35:12.156Z,16.20
2023-03-29T22:37:45.597Z,16.20
2023-03-29T22:40:14.952Z,16.20
2023-03-29T22:42:43.221Z,16.20
2023-03-29T22:45:12.316Z,16.20
2023-03-29T22:47:40.704Z,16.20
2023-03-29T22:50:09.945Z,16.20
2023-03-29T22:52:38.203Z,16.20
2023-03-29T22:55:08.795Z,16.30
2023-03-29T22:57:37.084Z,16.20
2023-03-29T23:00:09.253Z,16.20
2023-03-29T23:02:38.171Z,16.20
2023-03-29T23:05:07.684Z,16.20
2023-03-29T23:07:36.607Z,16.20
2023-03-29T23:10:08.268Z,16.20
2023-03-29T23:12:37.846Z,16.20
2023-03-29T23:15:08.147Z,16.20
2023-03-29T23:17:37.249Z,16.20
2023-03-29T23:20:07.160Z,16.20
2023-03-29T23:22:36.587Z,16.20
2023-03-29T23:25:05.253Z,16.20
2023-03-29T23:27:36.529Z,16.20
2023-03-29T23:30:07.641Z,16.20
2023-03-29T23:32:36.106Z,16.20
2023-03-29T23:35:05.506Z,16.20
2023-03-29T23:37:33.822Z,16.20
2023-03-29T23:40:02.062Z,16.20
2023-03-29T23:42:31.074Z,16.20
2023-03-29T23:45:01.234Z,16.10
2023-03-29T23:47:29.984Z,16.10
2023-03-29T23:49:58.256Z,16.10
2023-03-29T23:52:27.286Z,16.10
2023-03-29T23:54:55.528Z,16.10
2023-03-29T23:57:23.925Z,16.10
2023-03-29T23:59:52.854Z,16.10
